Time;durP1;ratioP1;P1;durP2;ratioP2;P2;SDS_P1;SDS_P2;PMS_P1;PMS_P2;Temp;Humidity;BMP_temperature;BMP_pressure;BME280_temperature;BME280_humidity;BME280_pressure;Samples;Min_cycle;Max_cycle;Signal;HPM_P1;HPM_P2
2021/08/21 00:00:44;;;;;;;25.00;11.67;;;14.70;97.30;;;;;;4963508;28;20462;-76
2021/08/21 00:03:09;;;;;;;20.13;10.20;;;14.60;97.30;;;;;;4992321;28;20189;-76
2021/08/21 00:05:36;;;;;;;22.13;11.53;;;14.60;97.30;;;;;;4994221;28;20482;-75
2021/08/21 00:08:02;;;;;;;22.00;11.93;;;14.60;97.30;;;;;;4976252;28;20296;-76
2021/08/21 00:10:28;;;;;;;20.60;11.13;;;14.60;97.30;;;;;;4965890;28;20505;-76
2021/08/21 00:12:55;;;;;;;18.70;10.73;;;14.60;97.30;;;;;;4974705;28;20492;-76
2021/08/21 00:15:21;;;;;;;19.73;10.70;;;14.50;97.30;;;;;;4976388;28;20182;-76
2021/08/21 00:17:47;;;;;;;18.20;9.63;;;14.50;97.30;;;;;;4976515;28;20483;-76
2021/08/21 00:20:12;;;;;;;18.77;10.77;;;14.50;97.30;;;;;;4974860;28;20277;-76
2021/08/21 00:22:38;;;;;;;16.17;8.80;;;14.40;97.30;;;;;;4993240;28;20524;-76
2021/08/21 00:25:05;;;;;;;19.37;9.17;;;14.40;97.30;;;;;;4976301;28;20678;-76
2021/08/21 00:27:31;;;;;;;13.27;8.97;;;14.40;97.30;;;;;;4976061;28;20512;-77
2021/08/21 00:29:57;;;;;;;17.13;9.63;;;14.30;97.30;;;;;;4975626;28;20544;-76
2021/08/21 00:32:22;;;;;;;19.70;10.87;;;14.30;97.30;;;;;;4974674;28;20775;-76
2021/08/21 00:34:48;;;;;;;21.77;11.27;;;14.20;97.30;;;;;;4976047;28;20182;-76
2021/08/21 00:37:14;;;;;;;18.57;10.77;;;14.20;97.30;;;;;;4984332;28;20206;-77
2021/08/21 00:39:40;;;;;;;21.40;11.13;;;14.20;97.30;;;;;;4974221;28;20411;-76
2021/08/21 00:42:07;;;;;;;17.77;9.97;;;14.20;97.30;;;;;;4973826;28;20432;-76
2021/08/21 00:44:33;;;;;;;16.70;9.80;;;14.20;97.30;;;;;;4973988;28;20543;-76
2021/08/21 00:47:04;;;;;;;20.93;10.40;;;14.10;97.30;;;;;;4956925;28;20434;-76
2021/08/21 00:49:31;;;;;;;18.63;9.90;;;14.10;97.30;;;;;;4978105;28;20479;-76
2021/08/21 00:52:00;;;;;;;19.00;10.30;;;14.00;97.30;;;;;;4975138;28;20421;-76
2021/08/21 00:54:26;;;;;;;19.60;10.53;;;14.00;97.30;;;;;;4975652;28;21026;-77
2021/08/21 00:56:54;;;;;;;18.90;10.30;;;14.00;97.30;;;;;;4992638;28;20421;-76
2021/08/21 00:59:20;;;;;;;19.73;10.57;;;14.00;97.30;;;;;;4992690;28;20196;-77
2021/08/21 01:01:46;;;;;;;21.00;10.80;;;14.00;97.30;;;;;;4987650;28;20426;-76
2021/08/21 01:04:11;;;;;;;23.43;12.53;;;13.90;97.30;;;;;;4973429;28;20761;-76
2021/08/21 01:06:37;;;;;;;23.90;11.97;;;13.90;97.30;;;;;;4983706;28;20185;-77
2021/08/21 01:09:03;;;;;;;18.00;10.40;;;13.90;97.30;;;;;;4973283;28;20209;-76
2021/08/21 01:11:32;;;;;;;20.50;10.27;;;13.90;97.30;;;;;;4976812;28;20465;-76
2021/08/21 01:14:01;;;;;;;15.70;9.03;;;13.90;97.30;;;;;;4975431;28;20182;-76
2021/08/21 01:16:28;;;;;;;18.00;9.70;;;13.90;97.30;;;;;;4992440;28;20401;-76
2021/08/21 01:18:54;;;;;;;19.03;10.00;;;13.90;97.30;;;;;;4975472;28;20524;-77
2021/08/21 01:21:20;;;;;;;21.70;11.33;;;13.80;97.30;;;;;;4991788;28;20507;-76
2021/08/21 01:23:47;;;;;;;19.03;10.40;;;13.80;97.30;;;;;;4992852;28;20189;-76
2021/08/21 01:26:12;;;;;;;21.60;11.40;;;13.80;97.30;;;;;;4992308;28;20463;-76
2021/08/21 01:28:38;;;;;;;20.10;10.17;;;13.70;97.30;;;;;;4974617;28;20473;-76
2021/08/21 01:31:08;;;;;;;17.23;10.17;;;13.70;97.30;;;;;;4976746;28;20314;-76
2021/08/21 01:33:35;;;;;;;16.80;10.10;;;13.70;97.30;;;;;;4973282;28;20508;-76
2021/08/21 01:36:01;;;;;;;16.20;8.70;;;13.80;97.30;;;;;;4974742;28;20417;-76
2021/08/21 01:38:26;;;;;;;14.90;9.87;;;13.70;97.30;;;;;;4974215;28;20455;-76
2021/08/21 01:40:53;;;;;;;17.53;10.50;;;13.70;97.30;;;;;;4971046;28;20602;-76
2021/08/21 01:43:20;;;;;;;17.37;10.53;;;13.70;97.30;;;;;;4956329;28;20291;-76
2021/08/21 01:45:46;;;;;;;21.47;10.60;;;13.60;97.30;;;;;;4972867;28;20517;-76
2021/08/21 01:48:12;;;;;;;19.63;11.60;;;13.60;97.30;;;;;;4962842;28;20548;-76
2021/08/21 01:50:38;;;;;;;21.37;11.27;;;13.50;97.30;;;;;;4990866;28;20181;-76
2021/08/21 01:53:09;;;;;;;22.90;11.77;;;13.50;97.30;;;;;;4967396;28;20422;-76
2021/08/21 01:55:34;;;;;;;21.23;12.20;;;13.60;97.30;;;;;;4954859;28;20510;-76
2021/08/21 01:58:00;;;;;;;21.27;11.10;;;13.60;97.30;;;;;;4964941;28;20525;-75
2021/08/21 02:00:28;;;;;;;28.00;12.50;;;13.60;97.30;;;;;;4974444;28;20632;-76
2021/08/21 02:02:55;;;;;;;21.70;11.67;;;13.60;97.30;;;;;;4962844;28;20174;-76
2021/08/21 02:05:21;;;;;;;19.17;10.83;;;13.60;97.30;;;;;;4955039;28;20975;-76
2021/08/21 02:07:48;;;;;;;19.80;10.93;;;13.60;97.30;;;;;;4960879;28;20426;-76
2021/08/21 02:10:16;;;;;;;22.23;11.20;;;13.60;97.30;;;;;;4965912;28;20481;-76
2021/08/21 02:12:42;;;;;;;24.60;12.07;;;13.60;97.30;;;;;;4990842;28;20417;-76
2021/08/21 02:15:11;;;;;;;22.60;10.83;;;13.60;97.30;;;;;;4991430;28;20432;-76
2021/08/21 02:17:37;;;;;;;21.07;11.00;;;13.60;97.30;;;;;;4991742;28;20173;-76
2021/08/21 02:20:11;;;;;;;22.63;12.30;;;13.60;97.30;;;;;;4974228;28;20459;-76
2021/08/21 02:22:36;;;;;;;22.77;10.47;;;13.60;97.30;;;;;;4973866;28;20614;-76
2021/08/21 02:25:02;;;;;;;23.73;12.83;;;13.50;97.30;;;;;;4978808;28;20445;-76
2021/08/21 02:27:35;;;;;;;22.03;12.43;;;13.50;97.30;;;;;;4954991;28;20273;-76
2021/08/21 02:30:01;;;;;;;23.03;11.40;;;13.50;97.30;;;;;;4954782;28;20221;-76
2021/08/21 02:32:27;;;;;;;17.10;10.77;;;13.40;97.30;;;;;;4979223;28;20425;-77
2021/08/21 02:34:52;;;;;;;21.73;11.17;;;13.40;97.30;;;;;;4962632;28;20237;-76
2021/08/21 02:37:19;;;;;;;21.27;11.67;;;13.30;97.30;;;;;;4954070;28;20201;-76
2021/08/21 02:39:45;;;;;;;21.87;12.90;;;13.30;97.30;;;;;;4953354;28;20198;-76
2021/08/21 02:42:10;;;;;;;25.40;12.00;;;13.20;97.30;;;;;;4972591;28;20830;-76
2021/08/21 02:44:36;;;;;;;21.40;12.03;;;13.20;97.30;;;;;;4957333;28;20178;-76
2021/08/21 02:47:02;;;;;;;25.70;11.30;;;13.10;97.30;;;;;;4977481;28;20280;-76
2021/08/21 02:49:28;;;;;;;19.13;10.33;;;13.10;97.30;;;;;;4974825;28;20612;-76
2021/08/21 02:51:53;;;;;;;19.67;11.53;;;13.10;97.30;;;;;;4977511;28;20528;-76
2021/08/21 02:54:19;;;;;;;24.37;13.30;;;13.10;97.30;;;;;;4995990;28;20174;-76
2021/08/21 02:56:44;;;;;;;20.93;12.20;;;13.10;97.30;;;;;;4994571;28;20666;-76
2021/08/21 02:59:10;;;;;;;23.90;11.87;;;13.10;97.30;;;;;;4994906;28;20355;-76
2021/08/21 03:01:35;;;;;;;25.40;12.83;;;13.10;97.30;;;;;;4977779;28;20186;-76
2021/08/21 03:04:01;;;;;;;25.80;12.67;;;13.20;97.30;;;;;;4995333;28;20396;-75
2021/08/21 03:06:26;;;;;;;19.17;10.80;;;13.10;97.30;;;;;;4975965;28;20539;-76
2021/08/21 03:08:52;;;;;;;24.10;11.27;;;13.10;97.30;;;;;;4976091;28;20225;-76
2021/08/21 03:11:18;;;;;;;22.13;12.07;;;13.10;97.30;;;;;;4974001;28;20599;-76
2021/08/21 03:13:43;;;;;;;22.90;12.10;;;13.10;97.30;;;;;;4957466;28;20667;-76
2021/08/21 03:16:10;;;;;;;19.30;10.93;;;13.10;97.30;;;;;;4993645;28;20555;-76
2021/08/21 03:18:36;;;;;;;19.70;11.30;;;13.10;97.30;;;;;;4992438;28;20197;-76
2021/08/21 03:21:01;;;;;;;19.23;10.90;;;13.10;97.30;;;;;;4971333;28;20438;-76
2021/08/21 03:23:27;;;;;;;24.37;12.00;;;13.10;97.30;;;;;;4958212;28;20186;-76
2021/08/21 03:25:52;;;;;;;19.80;10.90;;;13.00;97.30;;;;;;4975632;28;20568;-77
2021/08/21 03:28:18;;;;;;;19.00;10.20;;;13.00;97.30;;;;;;4994607;28;20568;-76
2021/08/21 03:30:43;;;;;;;14.60;8.23;;;13.00;97.30;;;;;;4994580;28;20221;-76
2021/08/21 03:33:09;;;;;;;15.00;8.90;;;13.00;97.30;;;;;;4977320;28;20174;-76
2021/08/21 03:35:35;;;;;;;17.13;9.17;;;13.00;97.30;;;;;;4961812;28;20261;-76
2021/08/21 03:38:01;;;;;;;18.20;10.23;;;12.90;97.30;;;;;;4975491;28;20226;-76
2021/08/21 03:40:27;;;;;;;16.77;9.60;;;12.90;97.30;;;;;;4974958;28;20492;-76
2021/08/21 03:42:53;;;;;;;18.77;10.00;;;12.80;97.30;;;;;;4963642;28;20189;-76
2021/08/21 03:45:18;;;;;;;22.27;10.43;;;12.80;97.30;;;;;;4989399;28;20440;-77
2021/08/21 03:47:46;;;;;;;26.10;12.43;;;12.80;97.30;;;;;;4975050;28;20668;-75
2021/08/21 03:50:12;;;;;;;19.77;11.30;;;12.70;97.30;;;;;;4977529;28;20317;-76
2021/08/21 03:52:39;;;;;;;21.33;10.53;;;12.70;97.30;;;;;;4957891;28;20426;-76
2021/08/21 03:55:05;;;;;;;22.33;10.57;;;12.70;97.30;;;;;;4973860;28;20418;-76
2021/08/21 03:57:30;;;;;;;20.70;11.23;;;12.70;97.30;;;;;;4965755;28;20435;-77
2021/08/21 03:59:56;;;;;;;24.03;10.47;;;12.70;97.30;;;;;;4991213;28;20542;-76
2021/08/21 04:02:22;;;;;;;27.03;10.23;;;12.70;97.30;;;;;;4975033;28;20280;-76
2021/08/21 04:04:47;;;;;;;20.63;10.63;;;12.70;97.30;;;;;;4971637;28;20200;-75
2021/08/21 04:07:17;;;;;;;20.37;10.33;;;12.60;97.30;;;;;;4983220;28;20186;-76
2021/08/21 04:09:43;;;;;;;17.20;9.90;;;12.60;97.30;;;;;;4973704;28;20273;-76
2021/08/21 04:12:09;;;;;;;22.37;11.33;;;12.60;97.30;;;;;;4990670;28;20464;-76
2021/08/21 04:14:35;;;;;;;22.10;11.00;;;12.60;97.30;;;;;;4963659;28;20430;-76
2021/08/21 04:17:00;;;;;;;18.80;10.50;;;12.60;97.30;;;;;;4973157;28;20183;-77
2021/08/21 04:19:26;;;;;;;18.83;10.90;;;12.60;97.30;;;;;;4961232;28;20210;-76
2021/08/21 04:21:51;;;;;;;22.20;10.70;;;12.60;97.30;;;;;;4994852;28;20177;-76
2021/08/21 04:24:17;;;;;;;20.90;10.80;;;12.60;97.30;;;;;;4988137;28;20186;-76
2021/08/21 04:26:42;;;;;;;18.10;9.90;;;12.50;97.30;;;;;;4972139;28;20189;-71
2021/08/21 04:29:10;;;;;;;15.63;9.27;;;12.60;97.30;;;;;;4974166;28;20214;-72
2021/08/21 04:31:37;;;;;;;19.57;10.40;;;12.60;97.30;;;;;;4990723;28;20710;-73
2021/08/21 04:34:03;;;;;;;21.40;11.30;;;12.60;97.30;;;;;;4993179;28;20648;-72
2021/08/21 04:36:29;;;;;;;23.30;10.20;;;12.60;97.30;;;;;;4968297;28;20441;-72
2021/08/21 04:38:54;;;;;;;19.50;9.73;;;12.70;97.30;;;;;;4993371;28;20214;-71
2021/08/21 04:41:21;;;;;;;22.00;11.50;;;12.70;97.30;;;;;;4976408;28;20671;-71
2021/08/21 04:43:46;;;;;;;23.43;11.07;;;12.70;97.30;;;;;;4993333;28;20506;-71
2021/08/21 04:46:12;;;;;;;20.23;10.43;;;12.80;97.30;;;;;;4976040;28;20425;-71
2021/08/21 04:48:37;;;;;;;28.43;11.00;;;12.90;97.30;;;;;;4993014;28;20950;-71
2021/08/21 04:51:03;;;;;;;20.97;10.70;;;12.90;97.30;;;;;;4976172;28;20181;-71
2021/08/21 04:53:29;;;;;;;19.60;10.23;;;12.90;97.30;;;;;;4977129;28;20169;-71
2021/08/21 04:55:54;;;;;;;20.60;11.10;;;12.90;97.30;;;;;;4987779;28;20193;-71
2021/08/21 04:58:20;;;;;;;20.03;10.17;;;13.00;97.30;;;;;;4993037;28;20575;-71
2021/08/21 05:00:45;;;;;;;24.47;11.10;;;13.00;97.30;;;;;;4991506;28;20190;-71
2021/08/21 05:03:11;;;;;;;21.17;11.10;;;13.00;97.30;;;;;;4989760;28;20181;-72
2021/08/21 05:05:37;;;;;;;22.80;10.67;;;13.00;97.30;;;;;;4991878;28;20198;-72
2021/08/21 05:08:03;;;;;;;23.40;11.47;;;13.00;97.30;;;;;;4976496;28;20197;-71
2021/08/21 05:10:29;;;;;;;22.80;11.30;;;13.00;97.30;;;;;;4991720;28;20469;-72
2021/08/21 05:12:55;;;;;;;24.63;12.10;;;13.10;97.30;;;;;;4991530;28;20599;-71
2021/08/21 05:15:21;;;;;;;25.97;12.40;;;13.10;97.30;;;;;;4974395;28;20420;-71
2021/08/21 05:17:49;;;;;;;32.53;12.23;;;13.20;97.30;;;;;;4974391;28;20257;-71
2021/08/21 05:20:19;;;;;;;28.30;13.20;;;13.20;97.30;;;;;;4978244;28;20232;-70
2021/08/21 05:25:12;;;;;;;24.20;14.20;;;13.30;97.30;;;;;;4993081;28;20409;-71
2021/08/21 05:27:39;;;;;;;30.97;13.60;;;13.40;97.30;;;;;;4993028;28;20401;-71
2021/08/21 05:30:06;;;;;;;27.33;12.87;;;13.40;97.30;;;;;;4992603;28;20456;-71
2021/08/21 05:32:33;;;;;;;30.97;13.70;;;13.50;97.30;;;;;;4992958;28;20408;-71
2021/08/21 05:34:59;;;;;;;28.70;14.00;;;13.60;97.30;;;;;;4992232;28;20433;-71
2021/08/21 05:37:24;;;;;;;25.87;12.40;;;13.70;97.30;;;;;;4983256;28;20441;-71
2021/08/21 05:39:50;;;;;;;26.87;13.60;;;13.70;97.30;;;;;;4992710;28;20205;-71
2021/08/21 05:42:15;;;;;;;28.27;14.20;;;13.80;97.30;;;;;;4975150;28;20324;-72
2021/08/21 05:44:41;;;;;;;28.07;12.33;;;13.80;97.30;;;;;;4987818;28;20190;-71
2021/08/21 05:47:06;;;;;;;25.67;12.70;;;13.90;97.30;;;;;;4967096;28;20204;-71
2021/08/21 05:49:32;;;;;;;29.40;12.93;;;14.00;97.30;;;;;;4985445;28;20218;-71
2021/08/21 05:51:58;;;;;;;25.23;12.33;;;14.00;97.30;;;;;;4989503;28;20469;-71
2021/08/21 05:54:23;;;;;;;27.70;13.60;;;14.10;97.30;;;;;;4987544;28;20182;-71
2021/08/21 05:56:49;;;;;;;31.77;13.93;;;14.10;97.30;;;;;;4988117;28;20695;-72
2021/08/21 05:59:14;;;;;;;42.10;14.43;;;14.20;97.30;;;;;;4966983;28;20194;-72
2021/08/21 06:01:40;;;;;;;29.17;13.97;;;14.30;97.30;;;;;;4974460;28;20273;-72
2021/08/21 06:04:07;;;;;;;32.83;13.77;;;14.30;97.30;;;;;;4973901;28;20213;-71
2021/08/21 06:06:36;;;;;;;29.77;13.77;;;14.40;97.30;;;;;;4989898;28;20178;-71
2021/08/21 06:09:03;;;;;;;22.60;10.90;;;14.50;97.30;;;;;;4991316;28;20460;-71
2021/08/21 06:11:29;;;;;;;25.97;12.70;;;14.60;97.30;;;;;;4989016;28;20562;-71
2021/08/21 06:13:54;;;;;;;28.63;12.07;;;14.60;97.30;;;;;;4991704;28;20500;-71
2021/08/21 06:16:20;;;;;;;28.20;13.97;;;14.80;97.30;;;;;;4983819;28;20651;-71
2021/08/21 06:18:46;;;;;;;25.07;12.63;;;14.80;97.30;;;;;;4991156;28;20204;-71
2021/08/21 06:21:12;;;;;;;22.60;11.67;;;14.90;97.30;;;;;;4974077;28;20561;-71
2021/08/21 06:23:38;;;;;;;25.23;11.90;;;15.00;97.30;;;;;;4971932;28;20460;-71
2021/08/21 06:26:03;;;;;;;23.20;11.80;;;15.00;97.30;;;;;;4991709;28;20190;-71
2021/08/21 06:28:29;;;;;;;25.97;12.93;;;15.20;97.30;;;;;;4991250;28;20291;-72
2021/08/21 06:30:54;;;;;;;22.97;12.40;;;15.20;97.30;;;;;;4991258;28;20244;-71
2021/08/21 06:33:20;;;;;;;20.40;10.53;;;15.30;97.30;;;;;;4977800;28;20733;-71
2021/08/21 06:35:45;;;;;;;22.67;11.27;;;15.40;97.30;;;;;;4979410;28;20248;-71
2021/08/21 06:38:11;;;;;;;23.77;12.23;;;15.50;97.30;;;;;;4990355;28;20704;-71
2021/08/21 06:40:36;;;;;;;28.67;13.07;;;15.60;97.30;;;;;;4990752;28;20186;-71
2021/08/21 06:43:02;;;;;;;23.13;11.87;;;15.70;97.30;;;;;;4957652;28;20174;-71
2021/08/21 06:45:28;;;;;;;24.10;11.83;;;15.80;97.30;;;;;;4976727;28;20192;-71
2021/08/21 06:47:55;;;;;;;21.23;11.40;;;15.90;97.30;;;;;;4968731;28;20192;-71
2021/08/21 06:50:21;;;;;;;25.33;11.83;;;16.00;97.30;;;;;;4966800;28;20298;-71
2021/08/21 06:52:46;;;;;;;21.33;10.70;;;16.10;97.30;;;;;;4980919;28;20469;-71
2021/08/21 06:55:13;;;;;;;21.30;10.70;;;16.20;97.30;;;;;;4961840;28;20791;-71
2021/08/21 06:57:38;;;;;;;20.60;11.43;;;16.30;97.30;;;;;;4985815;28;20178;-72
2021/08/21 07:00:04;;;;;;;21.27;10.37;;;16.40;97.30;;;;;;4970260;28;20471;-72
2021/08/21 07:02:30;;;;;;;20.03;10.97;;;16.50;97.30;;;;;;4979550;28;20232;-71
2021/08/21 07:04:55;;;;;;;21.83;11.20;;;16.60;97.30;;;;;;4954459;28;20521;-72
2021/08/21 07:07:21;;;;;;;19.83;10.63;;;16.80;97.30;;;;;;4959583;28;20178;-72
2021/08/21 07:09:46;;;;;;;22.87;10.43;;;16.90;97.30;;;;;;4990589;28;20213;-71
2021/08/21 07:12:12;;;;;;;15.87;9.40;;;17.00;97.30;;;;;;4991092;28;20182;-72
2021/08/21 07:14:37;;;;;;;18.03;9.63;;;17.10;97.30;;;;;;4990489;28;20192;-72
2021/08/21 07:17:03;;;;;;;17.53;8.90;;;17.30;97.30;;;;;;4990364;28;20206;-71
2021/08/21 07:19:29;;;;;;;24.83;10.30;;;17.40;97.30;;;;;;4957141;28;20680;-71
2021/08/21 07:21:55;;;;;;;17.97;9.83;;;17.40;97.30;;;;;;4954566;28;20508;-71
2021/08/21 07:24:21;;;;;;;16.10;9.00;;;17.50;97.30;;;;;;4954348;28;20195;-71
2021/08/21 07:26:47;;;;;;;16.47;9.33;;;17.70;97.30;;;;;;4964233;28;20186;-71
2021/08/21 07:29:12;;;;;;;18.57;9.80;;;17.80;97.30;;;;;;4956538;28;20512;-71
2021/08/21 07:31:38;;;;;;;14.43;8.13;;;17.90;97.30;;;;;;4991708;28;20210;-71
2021/08/21 07:34:04;;;;;;;16.43;8.23;;;18.00;97.30;;;;;;4959317;28;20269;-71
2021/08/21 07:36:29;;;;;;;17.73;9.13;;;18.10;97.30;;;;;;4966824;28;20210;-71
2021/08/21 07:38:55;;;;;;;14.23;8.60;;;18.30;97.30;;;;;;4966656;28;20214;-71
2021/08/21 07:41:20;;;;;;;14.77;7.83;;;18.40;97.30;;;;;;4966933;28;20182;-71
2021/08/21 07:43:46;;;;;;;15.40;8.43;;;18.50;97.30;;;;;;4975167;28;20269;-72
2021/08/21 07:46:12;;;;;;;15.87;7.93;;;18.60;97.30;;;;;;4983892;28;20277;-71
2021/08/21 07:48:37;;;;;;;12.57;7.70;;;18.80;97.30;;;;;;4959214;28;20221;-71
2021/08/21 07:51:04;;;;;;;12.53;7.80;;;18.90;97.30;;;;;;4965857;28;20216;-72
2021/08/21 07:53:30;;;;;;;17.13;8.23;;;19.00;97.30;;;;;;4975119;28;20277;-72
2021/08/21 07:55:55;;;;;;;14.07;7.87;;;19.20;97.30;;;;;;4993850;28;20507;-71
2021/08/21 07:58:21;;;;;;;14.13;7.53;;;19.30;97.30;;;;;;4970204;28;20314;-71
2021/08/21 08:00:46;;;;;;;10.50;6.90;;;19.40;97.30;;;;;;4985633;28;20758;-72
2021/08/21 08:03:14;;;;;;;14.43;6.97;;;19.40;97.30;;;;;;4962311;28;20703;-71
2021/08/21 08:05:43;;;;;;;13.07;6.73;;;19.50;97.30;;;;;;4958054;28;20265;-71
2021/08/21 08:08:09;;;;;;;11.97;7.33;;;19.50;97.30;;;;;;4974263;28;20457;-71
2021/08/21 08:10:34;;;;;;;14.70;6.63;;;19.50;97.30;;;;;;4984530;28;20518;-71
2021/08/21 08:13:00;;;;;;;11.20;6.10;;;19.60;97.30;;;;;;4965995;28;20183;-71
2021/08/21 08:15:25;;;;;;;8.90;6.00;;;19.60;97.30;;;;;;4966388;28;20260;-72
2021/08/21 08:17:51;;;;;;;11.13;6.60;;;19.70;97.30;;;;;;4993675;28;20180;-71
2021/08/21 08:20:17;;;;;;;11.10;7.10;;;19.80;97.30;;;;;;4972350;28;20182;-71
2021/08/21 08:22:42;;;;;;;8.53;5.57;;;19.90;97.30;;;;;;4990542;28;20197;-71
2021/08/21 08:25:09;;;;;;;7.40;5.37;;;20.00;97.30;;;;;;4974925;28;20695;-71
2021/08/21 08:27:35;;;;;;;10.07;6.60;;;20.10;97.30;;;;;;4976347;28;20636;-71
2021/08/21 08:30:01;;;;;;;10.70;6.93;;;20.20;97.30;;;;;;4965065;28;20994;-71
2021/08/21 08:32:27;;;;;;;11.00;6.63;;;20.30;97.30;;;;;;4974594;28;20448;-71
2021/08/21 08:34:52;;;;;;;11.17;5.80;;;20.40;97.30;;;;;;4956777;28;20203;-71
2021/08/21 08:37:18;;;;;;;9.70;6.73;;;20.50;97.30;;;;;;4962540;28;20174;-72
2021/08/21 08:39:43;;;;;;;9.07;6.03;;;20.60;97.30;;;;;;4978730;28;20217;-71
2021/08/21 08:42:09;;;;;;;9.90;6.37;;;20.70;97.30;;;;;;4984396;28;20193;-71
2021/08/21 08:44:36;;;;;;;10.93;5.93;;;20.80;95.30;;;;;;4974638;28;20186;-72
2021/08/21 08:47:03;;;;;;;9.13;5.43;;;20.90;94.70;;;;;;4977367;28;20182;-73
2021/08/21 08:49:29;;;;;;;11.63;6.63;;;21.10;96.00;;;;;;4974408;28;20838;-72
2021/08/21 08:51:55;;;;;;;9.77;6.00;;;21.20;96.40;;;;;;4963223;28;20418;-72
2021/08/21 08:54:21;;;;;;;9.67;5.43;;;21.30;97.30;;;;;;4992566;28;20420;-72
2021/08/21 08:56:46;;;;;;;9.30;5.83;;;21.40;97.10;;;;;;4973711;28;20174;-72
2021/08/21 08:59:12;;;;;;;8.17;5.10;;;21.50;95.60;;;;;;4975388;28;20601;-72
2021/08/21 09:01:42;;;;;;;10.90;6.00;;;21.60;95.80;;;;;;4966828;28;20190;-71
2021/08/21 09:04:15;;;;;;;9.67;5.80;;;21.70;96.60;;;;;;4989241;28;20232;-71
2021/08/21 09:06:40;;;;;;;9.57;4.70;;;21.80;96.10;;;;;;4972419;28;20464;-72
2021/08/21 09:09:17;;;;;;;10.67;5.30;;;22.00;95.60;;;;;;4990041;28;20480;-71
2021/08/21 09:11:49;;;;;;;10.43;6.10;;;22.00;93.30;;;;;;5011345;28;20574;-72
2021/08/21 09:14:29;;;;;;;10.13;5.10;;;22.10;92.30;;;;;;4978521;28;20521;-72
2021/08/21 09:17:19;;;;;;;8.40;4.77;;;22.20;92.20;;;;;;4992476;28;20420;-70
2021/08/21 09:19:47;;;;;;;7.70;4.80;;;22.30;91.60;;;;;;4982229;28;20549;-71
2021/08/21 09:22:13;;;;;;;8.27;4.60;;;22.40;91.10;;;;;;4972021;28;20445;-71
2021/08/21 09:24:40;;;;;;;5.70;4.70;;;22.50;90.40;;;;;;4964723;28;20451;-71
2021/08/21 09:27:24;;;;;;;8.10;5.07;;;22.50;91.10;;;;;;4992893;28;20467;-71
2021/08/21 09:30:13;;;;;;;9.90;4.80;;;22.60;90.20;;;;;;4961215;28;20469;-71
2021/08/21 09:32:39;;;;;;;7.67;5.00;;;22.70;90.50;;;;;;4955620;28;20774;-71
2021/08/21 09:35:11;;;;;;;8.90;5.00;;;22.80;92.10;;;;;;4956637;28;20825;-71
2021/08/21 09:37:47;;;;;;;9.03;5.30;;;22.90;91.20;;;;;;4955598;28;20756;-71
2021/08/21 09:40:34;;;;;;;9.80;5.50;;;23.00;92.30;;;;;;4979233;28;20802;-70
2021/08/21 09:43:02;;;;;;;8.27;4.70;;;23.10;92.00;;;;;;4978593;28;20476;-71
2021/08/21 09:45:28;;;;;;;6.30;4.83;;;23.20;89.70;;;;;;4967452;28;20429;-71
2021/08/21 09:48:02;;;;;;;6.30;4.80;;;23.30;89.50;;;;;;4965559;28;20433;-71
2021/08/21 09:50:41;;;;;;;8.47;5.07;;;23.40;90.40;;;;;;4980655;28;20220;-71
2021/08/21 09:53:09;;;;;;;7.90;5.30;;;23.50;90.50;;;;;;4977449;28;20789;-71
2021/08/21 09:55:36;;;;;;;8.20;4.80;;;23.70;89.30;;;;;;4971386;28;20869;-71
2021/08/21 09:58:05;;;;;;;7.43;5.20;;;23.80;90.30;;;;;;4973456;28;20558;-71
2021/08/21 10:00:33;;;;;;;7.30;5.03;;;23.80;88.30;;;;;;4964687;28;20437;-70
2021/08/21 10:02:59;;;;;;;7.77;4.07;;;23.80;87.50;;;;;;4960685;28;20449;-71
2021/08/21 10:05:26;;;;;;;7.97;4.47;;;23.80;87.70;;;;;;4974066;28;20536;-72
2021/08/21 10:07:59;;;;;;;9.30;6.10;;;23.80;86.50;;;;;;4971034;28;20472;-72
2021/08/21 10:10:29;;;;;;;7.77;5.40;;;23.80;86.50;;;;;;4971816;28;20477;-71
2021/08/21 10:12:58;;;;;;;8.47;4.90;;;23.80;86.40;;;;;;4954611;28;20429;-71
2021/08/21 10:15:25;;;;;;;7.43;4.73;;;23.90;87.00;;;;;;4955733;28;20429;-71
2021/08/21 10:17:52;;;;;;;8.70;4.37;;;24.00;87.70;;;;;;4968632;28;20846;-72
2021/08/21 10:20:17;;;;;;;5.70;4.30;;;24.00;86.40;;;;;;4974197;28;20519;-71
2021/08/21 10:22:45;;;;;;;7.60;5.17;;;24.10;87.20;;;;;;4991623;28;20514;-71
2021/08/21 10:25:11;;;;;;;7.20;5.23;;;24.20;87.60;;;;;;4986189;28;20628;-71
2021/08/21 10:27:46;;;;;;;8.07;4.53;;;24.30;87.00;;;;;;4964330;28;20522;-72
2021/08/21 10:30:20;;;;;;;9.83;4.77;;;24.20;86.30;;;;;;4973243;28;20460;-72
2021/08/21 10:32:59;;;;;;;4.70;4.13;;;24.30;87.60;;;;;;4992779;28;20418;-73
2021/08/21 10:35:51;;;;;;;8.20;5.43;;;24.40;87.80;;;;;;4968994;28;20436;-73
2021/08/21 10:38:32;;;;;;;6.87;4.30;;;24.60;86.90;;;;;;4955925;28;20952;-71
2021/08/21 10:41:27;;;;;;;6.90;4.40;;;24.70;86.60;;;;;;4972494;28;20421;-71
2021/08/21 10:43:57;;;;;;;7.00;4.70;;;24.90;86.30;;;;;;4973036;28;20560;-74
2021/08/21 10:46:49;;;;;;;12.53;4.70;;;24.80;85.40;;;;;;4969786;28;20895;-71
2021/08/21 10:49:15;;;;;;;5.67;4.43;;;24.60;86.50;;;;;;4968005;28;20460;-72
2021/08/21 10:51:43;;;;;;;6.70;4.87;;;24.60;86.00;;;;;;4973660;28;20432;-72
2021/08/21 10:54:27;;;;;;;6.00;4.30;;;24.50;85.60;;;;;;4973927;28;20223;-71
2021/08/21 10:56:54;;;;;;;6.87;4.40;;;24.40;87.00;;;;;;4989165;28;20471;-72
2021/08/21 10:59:40;;;;;;;5.53;4.30;;;24.50;87.70;;;;;;4991050;28;20487;-72
2021/08/21 11:02:20;;;;;;;7.13;4.67;;;24.60;87.30;;;;;;4973516;28;20509;-73
2021/08/21 11:04:46;;;;;;;6.50;4.87;;;24.80;85.20;;;;;;4982465;28;20443;-73
2021/08/21 11:07:33;;;;;;;6.90;4.63;;;25.00;86.10;;;;;;4975336;28;20410;-72
2021/08/21 11:10:31;;;;;;;6.40;4.00;;;25.20;86.60;;;;;;4957488;28;20645;-72
2021/08/21 11:12:57;;;;;;;6.10;4.20;;;25.30;85.70;;;;;;4932389;28;20530;-72
2021/08/21 11:15:26;;;;;;;5.57;4.00;;;25.40;86.60;;;;;;4972089;28;20432;-72
2021/08/21 11:17:51;;;;;;;6.63;4.50;;;25.30;85.10;;;;;;4957600;28;20653;-72
2021/08/21 11:20:32;;;;;;;6.33;3.80;;;25.30;85.80;;;;;;4975303;28;20420;-72
2021/08/21 11:23:07;;;;;;;5.93;4.17;;;25.50;84.80;;;;;;4975218;28;20249;-72
2021/08/21 11:25:40;;;;;;;4.60;3.57;;;25.50;83.80;;;;;;4976149;28;20420;-73
2021/08/21 11:28:08;;;;;;;4.73;3.50;;;25.40;83.30;;;;;;4994164;28;20448;-73
2021/08/21 11:30:35;;;;;;;6.00;4.00;;;25.30;83.40;;;;;;4994473;28;20578;-72
2021/08/21 11:33:06;;;;;;;7.50;4.00;;;25.10;83.00;;;;;;4994518;28;20786;-72
2021/08/21 11:35:45;;;;;;;7.90;4.23;;;25.00;84.20;;;;;;4994056;28;20427;-71
2021/08/21 11:38:13;;;;;;;5.13;4.03;;;24.90;84.80;;;;;;4957501;28;20461;-72
2021/08/21 11:40:43;;;;;;;5.50;4.30;;;24.80;84.90;;;;;;4974750;28;20414;-72
2021/08/21 11:43:20;;;;;;;5.87;4.77;;;24.80;83.20;;;;;;4975065;28;20407;-72
2021/08/21 11:45:46;;;;;;;5.50;4.30;;;24.90;85.00;;;;;;4979754;28;20491;-72
2021/08/21 11:48:12;;;;;;;4.63;3.63;;;25.00;84.40;;;;;;4978531;28;20449;-72
2021/08/21 11:50:39;;;;;;;6.57;4.50;;;25.00;82.90;;;;;;4992569;28;20205;-72
2021/08/21 11:53:10;;;;;;;5.20;3.40;;;25.00;85.00;;;;;;4994003;28;20190;-71
2021/08/21 11:55:38;;;;;;;4.63;3.47;;;25.00;85.90;;;;;;4994181;28;20413;-72
2021/08/21 11:58:08;;;;;;;5.00;4.10;;;25.00;84.90;;;;;;4993621;28;20444;-72
2021/08/21 12:00:42;;;;;;;5.93;3.80;;;25.00;85.40;;;;;;4992749;28;20512;-72
2021/08/21 12:03:10;;;;;;;6.20;4.07;;;25.00;86.40;;;;;;4992524;28;20717;-72
2021/08/21 12:05:44;;;;;;;8.00;3.90;;;25.10;89.20;;;;;;4992665;28;20948;-72
2021/08/21 12:08:20;;;;;;;5.30;3.73;;;25.40;85.10;;;;;;4993724;28;20465;-72
2021/08/21 12:10:49;;;;;;;4.60;3.20;;;25.60;86.80;;;;;;4992365;28;20534;-72
2021/08/21 12:13:18;;;;;;;5.17;3.40;;;25.70;83.30;;;;;;4993749;28;20753;-72
2021/08/21 12:15:45;;;;;;;6.10;4.10;;;25.70;85.80;;;;;;4991317;28;20417;-72
2021/08/21 12:18:11;;;;;;;5.20;3.57;;;25.80;84.50;;;;;;4993696;28;20432;-72
2021/08/21 12:20:39;;;;;;;9.50;3.90;;;25.90;83.50;;;;;;4992357;28;20934;-73
2021/08/21 12:23:06;;;;;;;4.90;3.07;;;26.10;83.10;;;;;;4993358;28;20650;-73
2021/08/21 12:25:52;;;;;;;3.30;2.80;;;26.20;79.60;;;;;;4993847;28;20421;-72
2021/08/21 12:28:21;;;;;;;3.70;2.83;;;26.20;79.70;;;;;;4993480;28;20512;-72
2021/08/21 12:30:58;;;;;;;6.30;3.50;;;26.00;79.80;;;;;;4992404;28;20413;-72
2021/08/21 12:33:29;;;;;;;4.10;3.23;;;25.90;80.70;;;;;;4991961;28;20417;-72
2021/08/21 12:35:55;;;;;;;5.40;3.40;;;25.80;82.40;;;;;;4993534;28;20942;-73
2021/08/21 12:38:21;;;;;;;4.70;3.00;;;26.00;82.30;;;;;;4993235;28;20425;-72
2021/08/21 12:41:06;;;;;;;3.70;3.20;;;26.30;82.50;;;;;;4992138;28;20174;-72